Conesville, Iowa
Current Conditions -  °F | °C
As of 10:35 AM on Saturday 22 Nov 2014 (Local Time) from KMUT Reporting Station
Overcast Overcast  
Wind Chill: 52°   Ceiling: 1500
Heat Index: 52°   Visibility: 9mi
Dew Point: 46°   Wind: 15mph
Humidity: 82%   Direction: 200°SSW
Pressure: 29.92"   Gusts: NA
Location:  41.38°N, 91.35°W
Report Text: KMUT 221635Z AUTO 20013KT 9SM BKN015 BKN021 OVC033 11/08 A2992 RMK AO2
Loading
Personal Weather Stations






























Interactive Weather Map New forecast layout! Learn more

10-Day Weather Forecast

Advertisements
Track Severe Weather on mobile